Wetterdaten: Woche 26.09.22 - 02.10.22 (KW39)
Datum Zeit Temp. Aussen Temp. o. S. Temp +5cm Feuchte Auss Luftdruck Regen Sonnenschein Regendauer Solar Windben Empfang
26.09.2022 00:00 10,4 C 9,5 C 6,5 C 91 % 1011,7 hPa 0,0 l/m 0,00 h 0,00 h 0 W/m 2,2 km/h (1 Bft) 94,98 %
26.09.2022 01:00 10,4 C 9,5 C 6,7 C 92 % 1011,1 hPa 0,0 l/m 0,00 h 0,00 h 0 W/m 1,9 km/h (1 Bft) 97,20 %
26.09.2022 02:00 10,5 C 10,1 C 7,0 C 92 % 1010,2 hPa 0,0 l/m 0,00 h 0,00 h 0 W/m 8,2 km/h (2 Bft) 97,66 %
26.09.2022 03:00 11,1 C 10,6 C 7,2 C 92 % 1009,4 hPa 0,0 l/m 0,00 h 0,00 h 0 W/m 13,1 km/h (3 Bft) 96,17 %
26.09.2022 04:00 11,3 C 10,6 C 7,6 C 92 % 1008,5 hPa 0,0 l/m 0,00 h 0,00 h 0 W/m 14,8 km/h (3 Bft) 98,79 %
26.09.2022 05:00 11,3 C 10,6 C 7,5 C 92 % 1007,4 hPa 0,0 l/m 0,00 h 0,00 h 0 W/m 19,5 km/h (3 Bft) 98,15 %
26.09.2022 06:00 11,1 C 10,6 C 7,2 C 91 % 1006,5 hPa 0,0 l/m 0,00 h 0,00 h 0 W/m 16,3 km/h (3 Bft) 96,42 %
26.09.2022 07:00 10,9 C 10,6 C 7,2 C 89 % 1005,5 hPa 0,0 l/m 0,00 h 0,00 h 9 W/m 15,2 km/h (3 Bft) 98,08 %
26.09.2022 08:00 11,2 C 10,6 C 7,5 C 87 % 1004,7 hPa 0,0 l/m 0,00 h 0,00 h 37 W/m 19,4 km/h (3 Bft) 98,52 %
26.09.2022 09:00 11,3 C 10,7 C 6,5 C 88 % 1004,0 hPa 0,2 l/m 0,00 h 0,87 h 38 W/m 23,2 km/h (4 Bft) 95,18 %
26.09.2022 10:00 11,1 C 10,6 C 6,1 C 90 % 1003,4 hPa 0,2 l/m 0,00 h 0,73 h 38 W/m 22,4 km/h (4 Bft) 99,50 %
26.09.2022 11:00 11,4 C 11,0 C 6,7 C 91 % 1002,8 hPa 0,2 l/m 0,00 h 0,73 h 97 W/m 20,2 km/h (4 Bft) 97,44 %
26.09.2022 12:00 12,3 C 12,3 C 7,5 C 90 % 1001,8 hPa 0,0 l/m 0,00 h 0,00 h 152 W/m 20,4 km/h (4 Bft) 96,54 %
26.09.2022 13:00 13,5 C 13,5 C 8,1 C 84 % 1000,8 hPa 0,2 l/m 0,00 h 0,13 h 189 W/m 24,5 km/h (4 Bft) 98,78 %
26.09.2022 14:00 13,5 C 12,6 C 7,7 C 85 % 1000,2 hPa 0,2 l/m 0,00 h 1,00 h 93 W/m 24,2 km/h (4 Bft) 97,11 %
26.09.2022 15:00 12,9 C 12,1 C 7,4 C 89 % 999,6 hPa 0,6 l/m 0,00 h 0,97 h 65 W/m 25,6 km/h (4 Bft) 96,73 %
26.09.2022 16:00 12,4 C 11,2 C 7,4 C 92 % 998,9 hPa 0,8 l/m 0,00 h 0,77 h 35 W/m 21,9 km/h (4 Bft) 98,72 %
26.09.2022 17:00 12,2 C 11,7 C 7,2 C 92 % 998,2 hPa 0,0 l/m 0,00 h 0,33 h 16 W/m 30,7 km/h (5 Bft) 97,14 %
26.09.2022 18:00 12,3 C 11,2 C 7,2 C 89 % 997,4 hPa 0,4 l/m 0,00 h 0,63 h 8 W/m 29,8 km/h (5 Bft) 96,71 %
26.09.2022 19:00 11,6 C 10,6 C 7,2 C 94 % 996,9 hPa 0,2 l/m 0,00 h 0,90 h 0 W/m 24,0 km/h (4 Bft) 98,55 %
26.09.2022 20:00 11,3 C 10,6 C 7,2 C 95 % 996,7 hPa 0,2 l/m 0,00 h 0,70 h 0 W/m 18,1 km/h (3 Bft) 97,79 %
26.09.2022 21:00 11,1 C 10,5 C 7,2 C 96 % 996,5 hPa 0,0 l/m 0,00 h 0,17 h 0 W/m 9,3 km/h (2 Bft) 95,87 %
26.09.2022 22:00 10,8 C 10,0 C 6,8 C 97 % 996,3 hPa 0,0 l/m 0,00 h 0,00 h 0 W/m 7,9 km/h (2 Bft) 96,65 %
26.09.2022 23:00 10,8 C 10,0 C 7,1 C 97 % 996,1 hPa 0,4 l/m 0,00 h 0,40 h 0 W/m 11,6 km/h (2 Bft) 99,29 %
27.09.2022 00:00 10,7 C 10,0 C 6,9 C 97 % 996,1 hPa 0,4 l/m 0,00 h 1,00 h 0 W/m 12,7 km/h (3 Bft) 96,15 %
27.09.2022 01:00 10,3 C 9,5 C 6,7 C 97 % 996,3 hPa 0,2 l/m 0,00 h 0,63 h 0 W/m 10,5 km/h (2 Bft) 97,72 %
27.09.2022 02:00 10,1 C 9,4 C 6,7 C 97 % 996,6 hPa 0,0 l/m 0,00 h 0,13 h 0 W/m 11,0 km/h (2 Bft) 98,82 %
27.09.2022 03:00 10,0 C 9,4 C 6,7 C 97 % 996,9 hPa 0,0 l/m 0,00 h 0,00 h 0 W/m 12,2 km/h (3 Bft) 95,87 %
27.09.2022 04:00 9,8 C 9,3 C 6,4 C 97 % 997,2 hPa 0,0 l/m 0,00 h 0,00 h 0 W/m 12,6 km/h (3 Bft) 98,00 %
27.09.2022 05:00 9,2 C 8,4 C 5,6 C 97 % 997,5 hPa 0,0 l/m 0,00 h 0,00 h 0 W/m 12,2 km/h (2 Bft) 98,08 %
27.09.2022 06:00 8,9 C 8,3 C 5,5 C 97 % 997,6 hPa 0,0 l/m 0,00 h 0,00 h 0 W/m 12,8 km/h (3 Bft) 96,23 %
27.09.2022 07:00 8,7 C 8,3 C 5,0 C 96 % 998,0 hPa 0,2 l/m 0,00 h 0,00 h 10 W/m 13,1 km/h (3 Bft) 97,58 %
27.09.2022 08:00 9,0 C 8,3 C 5,4 C 95 % 998,4 hPa 0,0 l/m 0,00 h 0,07 h 27 W/m 13,0 km/h (3 Bft) 98,22 %
27.09.2022 09:00 9,2 C 8,9 C 5,9 C 95 % 998,8 hPa 0,0 l/m 0,00 h 0,37 h 81 W/m 11,9 km/h (2 Bft) 97,22 %
27.09.2022 10:00 9,6 C 9,4 C 6,4 C 94 % 999,4 hPa 0,2 l/m 0,00 h 0,57 h 110 W/m 13,2 km/h (3 Bft) 97,72 %
27.09.2022 11:00 10,2 C 10,4 C 6,6 C 95 % 999,5 hPa 0,2 l/m 0,13 h 0,27 h 206 W/m 14,7 km/h (3 Bft) 96,66 %
27.09.2022 12:00 10,7 C 10,7 C 6,7 C 93 % 999,3 hPa 0,0 l/m 0,00 h 0,45 h 177 W/m 16,1 km/h (3 Bft) 97,79 %
27.09.2022 13:00 11,0 C 11,2 C 7,7 C 92 % 999,1 hPa 0,0 l/m 0,00 h 0,07 h 192 W/m 14,9 km/h (3 Bft) 97,94 %
27.09.2022 14:00 10,9 C 10,9 C 7,5 C 90 % 999,0 hPa 0,0 l/m 0,00 h 0,23 h 178 W/m 16,6 km/h (3 Bft) 96,94 %
27.09.2022 15:00 11,3 C 11,9 C 8,3 C 87 % 999,0 hPa 0,0 l/m 0,87 h 0,00 h 327 W/m 13,0 km/h (3 Bft) 97,37 %
27.09.2022 16:00 11,9 C 11,8 C 8,3 C 84 % 999,0 hPa 0,0 l/m 0,40 h 0,03 h 191 W/m 11,9 km/h (2 Bft) 99,36 %
27.09.2022 17:00 10,6 C 9,8 C 6,2 C 88 % 999,2 hPa 0,8 l/m 0,00 h 0,40 h 46 W/m 14,5 km/h (3 Bft) 96,23 %
27.09.2022 18:00 9,5 C 9,0 C 5,4 C 92 % 998,9 hPa 0,0 l/m 0,27 h 0,00 h 46 W/m 9,4 km/h (2 Bft) 95,69 %
27.09.2022 19:00 9,4 C 8,7 C 5,4 C 93 % 998,5 hPa 0,0 l/m 0,00 h 0,03 h 7 W/m 10,9 km/h (2 Bft) 98,51 %
27.09.2022 20:00 9,4 C 8,8 C 5,6 C 94 % 998,2 hPa 0,0 l/m 0,00 h 0,00 h 0 W/m 3,8 km/h (1 Bft) 97,22 %
27.09.2022 21:00 9,4 C 8,7 C 5,6 C 94 % 997,5 hPa 0,8 l/m 0,00 h 0,83 h 0 W/m 4,1 km/h (1 Bft) 97,65 %
27.09.2022 22:00 9,3 C 8,3 C 5,6 C 95 % 997,4 hPa 3,6 l/m 0,00 h 1,00 h 0 W/m 7,2 km/h (2 Bft) 96,15 %
27.09.2022 23:00 8,6 C 7,8 C 5,0 C 96 % 996,8 hPa 0,0 l/m 0,00 h 0,10 h 0 W/m 2,2 km/h (1 Bft) 99,50 %
28.09.2022 00:00 8,3 C 7,2 C 5,0 C 97 % 996,5 hPa 0,0 l/m 0,00 h 0,00 h 0 W/m 6,2 km/h (2 Bft) 96,06 %
28.09.2022 01:00 8,2 C 7,2 C 5,0 C 97 % 996,3 hPa 0,0 l/m 0,00 h 0,00 h 0 W/m 1,8 km/h (1 Bft) 97,15 %
28.09.2022 02:00 8,0 C 7,1 C 4,7 C 98 % 996,1 hPa 0,0 l/m 0,00 h 0,00 h 0 W/m 2,7 km/h (1 Bft) 98,43 %
28.09.2022 03:00 7,7 C 6,9 C 4,4 C 98 % 995,9 hPa 0,0 l/m 0,00 h 0,00 h 0 W/m 1,6 km/h (1 Bft) 94,92 %
28.09.2022 04:00 7,9 C 7,2 C 4,9 C 98 % 995,8 hPa 0,0 l/m 0,00 h 0,00 h 0 W/m 0,0 km/h (0 Bft) 98,08 %
28.09.2022 05:00 8,0 C 7,5 C 5,0 C 98 % 995,9 hPa 0,2 l/m 0,00 h 0,00 h 0 W/m 4,3 km/h (1 Bft) 97,51 %
28.09.2022 06:00 8,0 C 7,4 C 5,0 C 98 % 995,9 hPa 0,0 l/m 0,00 h 0,00 h 0 W/m 5,5 km/h (1 Bft) 97,03 %
28.09.2022 07:00 7,8 C 7,2 C 5,0 C 98 % 996,0 hPa 0,0 l/m 0,00 h 0,00 h 8 W/m 5,1 km/h (1 Bft) 96,51 %
28.09.2022 08:00 7,9 C 7,6 C 5,0 C 98 % 996,4 hPa 0,0 l/m 0,00 h 0,00 h 36 W/m 7,2 km/h (2 Bft) 97,94 %
28.09.2022 09:00 8,5 C 8,7 C 5,8 C 97 % 996,9 hPa 0,0 l/m 0,10 h 0,00 h 115 W/m 8,7 km/h (2 Bft) 96,70 %
28.09.2022 10:00 9,6 C 9,8 C 7,1 C 95 % 997,5 hPa 0,0 l/m 0,03 h 0,00 h 147 W/m 10,8 km/h (2 Bft) 96,58 %
28.09.2022 11:00 10,8 C 11,6 C 8,7 C 89 % 997,9 hPa 0,0 l/m 0,20 h 0,00 h 263 W/m 14,4 km/h (3 Bft) 96,94 %
28.09.2022 12:00 12,3 C 12,9 C 9,7 C 83 % 998,0 hPa 0,0 l/m 0,30 h 0,00 h 255 W/m 12,0 km/h (2 Bft) 98,76 %
28.09.2022 13:00 13,4 C 13,8 C 10,0 C 80 % 997,9 hPa 0,0 l/m 0,30 h 0,00 h 240 W/m 11,6 km/h (2 Bft) 97,58 %
28.09.2022 14:00 13,9 C 14,2 C 10,1 C 76 % 997,9 hPa 0,0 l/m 0,30 h 0,00 h 221 W/m 11,5 km/h (2 Bft) 97,51 %
28.09.2022 15:00 14,5 C 14,8 C 10,4 C 76 % 997,8 hPa 0,0 l/m 0,87 h 0,00 h 462 W/m 13,4 km/h (3 Bft) 96,37 %
28.09.2022 16:00 14,1 C 13,3 C 9,5 C 75 % 998,1 hPa 0,2 l/m 0,40 h 0,17 h 201 W/m 13,7 km/h (3 Bft) 98,65 %
28.09.2022 17:00 10,7 C 9,2 C 5,8 C 90 % 998,8 hPa 6,6 l/m 0,00 h 0,97 h 10 W/m 5,1 km/h (1 Bft) 95,54 %
28.09.2022 18:00 9,8 C 8,8 C 5,7 C 94 % 999,3 hPa 0,6 l/m 0,00 h 0,40 h 14 W/m 2,8 km/h (1 Bft) 97,89 %
28.09.2022 19:00 9,9 C 8,7 C 5,8 C 96 % 999,2 hPa 0,2 l/m 0,10 h 0,17 h 14 W/m 0,5 km/h (0 Bft) 98,79 %
28.09.2022 20:00 9,3 C 8,1 C 5,4 C 96 % 999,5 hPa 0,0 l/m 0,00 h 0,00 h 0 W/m 1,8 km/h (1 Bft) 96,42 %
28.09.2022 21:00 8,8 C 7,8 C 5,0 C 96 % 999,8 hPa 0,0 l/m 0,00 h 0,00 h 0 W/m 3,6 km/h (1 Bft) 97,50 %
28.09.2022 22:00 8,5 C 7,7 C 5,0 C 97 % 1000,1 hPa 0,0 l/m 0,00 h 0,00 h 0 W/m 1,7 km/h (1 Bft) 96,39 %
28.09.2022 23:00 8,1 C 7,2 C 4,4 C 97 % 1000,1 hPa 0,0 l/m 0,00 h 0,00 h 0 W/m 2,6 km/h (1 Bft) 98,15 %
29.09.2022 00:00 7,7 C 6,9 C 4,4 C 97 % 1000,3 hPa 0,0 l/m 0,00 h 0,00 h 0 W/m 0,1 km/h (0 Bft) 92,17 %
29.09.2022 01:00 7,3 C 6,2 C 3,8 C 97 % 1000,4 hPa 0,0 l/m 0,00 h 0,00 h 0 W/m 0,0 km/h (0 Bft) 97,23 %
29.09.2022 02:00 6,6 C 5,7 C 3,3 C 97 % 1000,3 hPa 0,0 l/m 0,00 h 0,00 h 0 W/m 0,2 km/h (0 Bft) 96,91 %
29.09.2022 03:00 6,4 C 5,5 C 3,2 C 97 % 1000,5 hPa 0,0 l/m 0,00 h 0,00 h 0 W/m 0,0 km/h (0 Bft) 97,72 %
29.09.2022 04:00 6,0 C 5,2 C 2,9 C 97 % 1000,6 hPa 0,0 l/m 0,00 h 0,00 h 0 W/m 0,2 km/h (0 Bft) 95,72 %
29.09.2022 05:00 5,8 C 5,0 C 2,8 C 98 % 1000,6 hPa 0,2 l/m 0,00 h 0,00 h 0 W/m 0,3 km/h (0 Bft) 97,94 %
29.09.2022 06:00 5,7 C 5,0 C 2,8 C 98 % 1000,9 hPa 0,0 l/m 0,00 h 0,00 h 0 W/m 1,8 km/h (1 Bft) 98,71 %
29.09.2022 07:00 5,8 C 5,0 C 2,8 C 98 % 1001,3 hPa 0,0 l/m 0,00 h 0,00 h 9 W/m 3,9 km/h (1 Bft) 95,94 %
29.09.2022 08:00 5,9 C 5,4 C 3,1 C 98 % 1001,7 hPa 0,0 l/m 0,00 h 0,00 h 22 W/m 4,3 km/h (1 Bft) 98,79 %
29.09.2022 09:00 6,8 C 6,8 C 4,2 C 99 % 1002,1 hPa 0,0 l/m 0,17 h 0,00 h 84 W/m 4,2 km/h (1 Bft) 96,87 %
29.09.2022 10:00 8,3 C 9,0 C 5,9 C 99 % 1002,5 hPa 0,0 l/m 0,03 h 0,00 h 91 W/m 4,8 km/h (1 Bft) 97,94 %
29.09.2022 11:00 10,2 C 16,3 C 11,1 C 99 % 1002,9 hPa 0,0 l/m 0,57 h 0,00 h 329 W/m 6,4 km/h (2 Bft) 97,21 %
29.09.2022 12:00 12,8 C 14,5 C 10,6 C 87 % 1003,0 hPa 0,0 l/m 0,20 h 0,00 h 161 W/m 9,3 km/h (2 Bft) 96,90 %
29.09.2022 13:00 14,0 C 14,0 C 10,1 C 75 % 1003,3 hPa 0,0 l/m 0,00 h 0,00 h 149 W/m 5,9 km/h (2 Bft) 97,22 %
29.09.2022 14:00 14,2 C 15,5 C 10,0 C 72 % 1003,4 hPa 0,0 l/m 0,27 h 0,00 h 275 W/m 2,9 km/h (1 Bft) 99,17 %
29.09.2022 15:00 14,8 C 15,0 C 9,9 C 68 % 1003,4 hPa 0,0 l/m 0,53 h 0,00 h 359 W/m 3,8 km/h (1 Bft) 95,97 %
29.09.2022 16:00 15,9 C 16,0 C 10,5 C 64 % 1003,7 hPa 0,0 l/m 0,97 h 0,00 h 411 W/m 5,9 km/h (2 Bft) 97,90 %
29.09.2022 17:00 15,5 C 15,5 C 9,5 C 65 % 1004,0 hPa 0,0 l/m 1,00 h 0,00 h 244 W/m 4,8 km/h (1 Bft) 98,52 %
29.09.2022 18:00 14,4 C 12,8 C 8,1 C 70 % 1004,6 hPa 0,0 l/m 0,03 h 0,00 h 32 W/m 0,9 km/h (0 Bft) 97,28 %
29.09.2022 19:00 12,4 C 10,1 C 6,1 C 78 % 1005,1 hPa 0,0 l/m 0,00 h 0,00 h 7 W/m 0,0 km/h (0 Bft) 98,36 %
29.09.2022 20:00 10,5 C 8,4 C 5,1 C 85 % 1005,8 hPa 0,0 l/m 0,00 h 0,00 h 0 W/m 0,0 km/h (0 Bft) 95,28 %
29.09.2022 21:00 9,2 C 7,6 C 4,4 C 89 % 1006,4 hPa 0,0 l/m 0,00 h 0,00 h 0 W/m 0,0 km/h (0 Bft) 97,34 %
29.09.2022 22:00 8,2 C 6,8 C 3,9 C 92 % 1007,1 hPa 0,0 l/m 0,00 h 0,00 h 0 W/m 0,0 km/h (0 Bft) 98,22 %
29.09.2022 23:00 7,5 C 6,1 C 3,3 C 93 % 1007,7 hPa 0,0 l/m 0,00 h 0,00 h 0 W/m 0,0 km/h (0 Bft) 96,33 %
30.09.2022 00:00 6,9 C 5,8 C 3,3 C 94 % 1008,0 hPa 0,0 l/m 0,00 h 0,00 h 0 W/m 0,1 km/h (0 Bft) 97,04 %
30.09.2022 01:00 6,4 C 5,3 C 2,8 C 95 % 1008,2 hPa 0,0 l/m 0,00 h 0,00 h 0 W/m 0,0 km/h (0 Bft) 96,30 %
30.09.2022 02:00 6,0 C 5,2 C 2,8 C 95 % 1008,5 hPa 0,0 l/m 0,00 h 0,00 h 0 W/m 0,3 km/h (0 Bft) 98,37 %
30.09.2022 03:00 5,8 C 4,8 C 2,4 C 96 % 1008,7 hPa 0,0 l/m 0,00 h 0,00 h 0 W/m 0,0 km/h (0 Bft) 96,07 %
30.09.2022 04:00 5,4 C 4,5 C 2,2 C 96 % 1008,7 hPa 0,0 l/m 0,00 h 0,00 h 0 W/m 0,0 km/h (0 Bft) 98,53 %
30.09.2022 05:00 5,5 C 5,0 C 2,7 C 96 % 1009,0 hPa 0,0 l/m 0,00 h 0,00 h 0 W/m 2,9 km/h (1 Bft) 95,09 %
30.09.2022 06:00 5,3 C 4,4 C 2,3 C 97 % 1009,5 hPa 0,0 l/m 0,00 h 0,00 h 0 W/m 0,9 km/h (0 Bft) 99,04 %
30.09.2022 07:00 5,1 C 4,4 C 2,2 C 97 % 1010,1 hPa 0,0 l/m 0,00 h 0,00 h 9 W/m 1,8 km/h (1 Bft) 97,09 %
30.09.2022 08:00 5,4 C 5,0 C 2,7 C 97 % 1010,8 hPa 0,0 l/m 0,00 h 0,00 h 26 W/m 1,9 km/h (1 Bft) 97,91 %
30.09.2022 09:00 6,5 C 6,7 C 4,0 C 98 % 1011,2 hPa 0,0 l/m 0,07 h 0,00 h 80 W/m 5,7 km/h (1 Bft) 96,82 %
30.09.2022 10:00 8,4 C 9,5 C 5,9 C 98 % 1011,4 hPa 0,0 l/m 0,07 h 0,00 h 97 W/m 8,1 km/h (2 Bft) 98,20 %
30.09.2022 11:00 11,3 C 15,6 C 9,9 C 94 % 1011,4 hPa 0,0 l/m 0,37 h 0,00 h 253 W/m 9,8 km/h (2 Bft) 97,80 %
30.09.2022 12:00 14,3 C 15,4 C 11,0 C 82 % 1011,3 hPa 0,0 l/m 0,13 h 0,00 h 195 W/m 13,3 km/h (3 Bft) 96,40 %
30.09.2022 13:00 15,1 C 15,5 C 10,8 C 75 % 1011,2 hPa 0,0 l/m 0,13 h 0,00 h 207 W/m 14,8 km/h (3 Bft) 98,75 %
30.09.2022 14:00 16,7 C 18,5 C 11,6 C 67 % 1010,9 hPa 0,0 l/m 0,90 h 0,00 h 568 W/m 19,4 km/h (3 Bft) 96,84 %
30.09.2022 15:00 16,7 C 16,5 C 11,5 C 67 % 1010,5 hPa 0,0 l/m 0,77 h 0,00 h 410 W/m 17,4 km/h (3 Bft) 97,99 %
30.09.2022 16:00 16,8 C 16,4 C 11,5 C 66 % 1010,1 hPa 0,0 l/m 0,80 h 0,00 h 336 W/m 19,7 km/h (3 Bft) 96,44 %
30.09.2022 17:00 16,6 C 16,1 C 11,2 C 66 % 1009,7 hPa 0,0 l/m 0,83 h 0,00 h 227 W/m 20,6 km/h (4 Bft) 98,35 %
30.09.2022 18:00 15,6 C 14,5 C 10,4 C 68 % 1009,8 hPa 0,0 l/m 0,00 h 0,00 h 25 W/m 13,8 km/h (3 Bft) 97,49 %
30.09.2022 19:00 14,4 C 12,7 C 8,5 C 72 % 1009,7 hPa 0,0 l/m 0,00 h 0,00 h 4 W/m 3,8 km/h (1 Bft) 96,85 %
30.09.2022 20:00 13,1 C 11,8 C 7,9 C 76 % 1009,7 hPa 0,0 l/m 0,00 h 0,00 h 0 W/m 7,9 km/h (2 Bft) 99,15 %
30.09.2022 21:00 12,5 C 11,4 C 7,8 C 79 % 1009,5 hPa 0,0 l/m 0,00 h 0,00 h 0 W/m 7,8 km/h (2 Bft) 95,69 %
30.09.2022 22:00 12,1 C 11,2 C 7,8 C 81 % 1009,1 hPa 0,0 l/m 0,00 h 0,00 h 0 W/m 10,3 km/h (2 Bft) 98,88 %
30.09.2022 23:00 12,1 C 11,3 C 7,8 C 81 % 1008,3 hPa 0,0 l/m 0,00 h 0,00 h 0 W/m 11,2 km/h (2 Bft) 95,30 %
01.10.2022 00:00 12,2 C 11,7 C 7,8 C 81 % 1007,8 hPa 0,0 l/m 0,00 h 0,00 h 0 W/m 9,5 km/h (2 Bft) 97,82 %
01.10.2022 01:00 12,6 C 11,9 C 7,9 C 81 % 1007,0 hPa 0,2 l/m 0,00 h 0,23 h 0 W/m 16,2 km/h (3 Bft) 97,43 %
01.10.2022 02:00 12,0 C 10,6 C 6,6 C 87 % 1006,2 hPa 1,0 l/m 0,00 h 1,00 h 0 W/m 24,3 km/h (4 Bft) 98,07 %
01.10.2022 03:00 11,2 C 10,3 C 6,2 C 92 % 1004,7 hPa 0,2 l/m 0,00 h 0,83 h 0 W/m 20,1 km/h (4 Bft) 97,08 %
01.10.2022 04:00 11,1 C 10,1 C 6,7 C 94 % 1004,3 hPa 2,6 l/m 0,00 h 1,00 h 0 W/m 17,3 km/h (3 Bft) 96,94 %
01.10.2022 05:00 10,9 C 10,0 C 6,7 C 96 % 1003,2 hPa 2,4 l/m 0,00 h 0,50 h 0 W/m 11,6 km/h (2 Bft) 98,63 %
01.10.2022 06:00 11,1 C 10,5 C 7,0 C 97 % 1002,8 hPa 0,0 l/m 0,00 h 0,07 h 0 W/m 13,1 km/h (3 Bft) 97,13 %
01.10.2022 07:00 11,6 C 10,9 C 7,3 C 97 % 1002,7 hPa 0,4 l/m 0,00 h 0,43 h 0 W/m 22,7 km/h (4 Bft) 96,76 %
01.10.2022 08:00 12,1 C 11,5 C 7,8 C 97 % 1003,1 hPa 0,0 l/m 0,00 h 0,00 h 18 W/m 19,7 km/h (3 Bft) 98,45 %
01.10.2022 09:00 12,6 C 12,1 C 8,3 C 96 % 1003,6 hPa 0,0 l/m 0,00 h 0,00 h 51 W/m 19,4 km/h (3 Bft) 96,14 %
01.10.2022 10:00 13,6 C 13,4 C 9,2 C 96 % 1004,2 hPa 0,0 l/m 0,10 h 0,00 h 134 W/m 15,7 km/h (3 Bft) 97,99 %
01.10.2022 11:00 13,9 C 13,4 C 9,6 C 95 % 1004,7 hPa 0,0 l/m 0,00 h 0,53 h 118 W/m 14,7 km/h (3 Bft) 99,28 %
01.10.2022 12:00 15,3 C 16,0 C 10,7 C 93 % 1005,3 hPa 0,0 l/m 0,10 h 0,27 h 186 W/m 16,2 km/h (3 Bft) 94,48 %
01.10.2022 13:00 16,5 C 16,6 C 12,0 C 86 % 1005,8 hPa 0,0 l/m 0,17 h 0,17 h 219 W/m 19,4 km/h (3 Bft) 99,22 %
01.10.2022 14:00 16,3 C 15,9 C 10,9 C 85 % 1006,4 hPa 2,4 l/m 0,30 h 0,63 h 241 W/m 18,4 km/h (3 Bft) 98,40 %
01.10.2022 15:00 15,3 C 14,5 C 10,0 C 91 % 1007,2 hPa 2,0 l/m 0,13 h 0,37 h 138 W/m 14,9 km/h (3 Bft) 95,73 %
01.10.2022 16:00 15,1 C 15,0 C 10,0 C 92 % 1008,0 hPa 0,4 l/m 0,33 h 0,23 h 178 W/m 12,6 km/h (3 Bft) 98,86 %
01.10.2022 17:00 15,9 C 15,4 C 9,6 C 85 % 1008,8 hPa 0,0 l/m 0,57 h 0,00 h 148 W/m 16,0 km/h (3 Bft) 98,16 %
01.10.2022 18:00 15,7 C 14,8 C 9,2 C 80 % 1009,7 hPa 0,0 l/m 0,00 h 0,00 h 29 W/m 14,1 km/h (3 Bft) 96,76 %
01.10.2022 19:00 14,8 C 13,8 C 9,8 C 79 % 1010,9 hPa 0,0 l/m 0,00 h 0,00 h 8 W/m 11,2 km/h (2 Bft) 98,47 %
01.10.2022 20:00 13,8 C 12,3 C 8,8 C 84 % 1012,1 hPa 0,0 l/m 0,00 h 0,00 h 0 W/m 2,7 km/h (1 Bft) 95,70 %
01.10.2022 21:00 12,7 C 11,5 C 8,2 C 89 % 1012,9 hPa 0,0 l/m 0,00 h 0,00 h 0 W/m 3,5 km/h (1 Bft) 96,69 %
01.10.2022 22:00 12,1 C 10,8 C 7,7 C 91 % 1013,5 hPa 0,0 l/m 0,00 h 0,00 h 0 W/m 3,1 km/h (1 Bft) 97,86 %
01.10.2022 23:00 12,0 C 11,2 C 8,0 C 92 % 1014,1 hPa 0,0 l/m 0,00 h 0,00 h 0 W/m 9,2 km/h (2 Bft) 97,16 %
02.10.2022 00:00 12,1 C 11,3 C 8,1 C 92 % 1014,6 hPa 0,0 l/m 0,00 h 0,00 h 0 W/m 10,3 km/h (2 Bft) 97,20 %
02.10.2022 01:00 12,6 C 11,7 C 8,7 C 94 % 1014,8 hPa 0,0 l/m 0,00 h 0,00 h 0 W/m 12,4 km/h (3 Bft) 98,13 %
02.10.2022 02:00 12,9 C 12,2 C 8,9 C 95 % 1015,1 hPa 0,0 l/m 0,00 h 0,00 h 0 W/m 10,5 km/h (2 Bft) 97,08 %
02.10.2022 03:00 13,4 C 12,8 C 9,4 C 95 % 1015,4 hPa 0,0 l/m 0,00 h 0,00 h 0 W/m 11,6 km/h (2 Bft) 98,08 %
02.10.2022 04:00 13,6 C 12,8 C 9,5 C 96 % 1015,3 hPa 0,0 l/m 0,00 h 0,00 h 0 W/m 10,9 km/h (2 Bft) 95,32 %
02.10.2022 05:00 13,8 C 12,5 C 9,5 C 96 % 1015,5 hPa 4,6 l/m 0,00 h 0,67 h 0 W/m 11,5 km/h (2 Bft) 97,87 %
02.10.2022 06:00 13,5 C 12,2 C 9,4 C 97 % 1015,6 hPa 8,2 l/m 0,00 h 0,87 h 0 W/m 8,2 km/h (2 Bft) 96,26 %
02.10.2022 07:00 13,2 C 12,2 C 9,4 C 98 % 1015,8 hPa 0,8 l/m 0,00 h 0,30 h 8 W/m 8,4 km/h (2 Bft) 99,29 %
02.10.2022 08:00 13,5 C 12,7 C 9,9 C 98 % 1016,3 hPa 0,0 l/m 0,00 h 0,00 h 20 W/m 8,4 km/h (2 Bft) 96,65 %
02.10.2022 09:00 13,7 C 13,0 C 10,2 C 98 % 1016,8 hPa 0,0 l/m 0,00 h 0,00 h 65 W/m 9,0 km/h (2 Bft) 97,37 %
02.10.2022 10:00 14,0 C 13,6 C 10,6 C 98 % 1017,3 hPa 0,0 l/m 0,00 h 0,00 h 101 W/m 10,2 km/h (2 Bft) 98,22 %
02.10.2022 11:00 14,3 C 14,3 C 10,9 C 98 % 1017,7 hPa 0,0 l/m 0,20 h 0,10 h 204 W/m 11,1 km/h (2 Bft) 97,97 %
02.10.2022 12:00 15,1 C 15,6 C 11,1 C 95 % 1018,1 hPa 0,0 l/m 0,13 h 0,00 h 224 W/m 13,8 km/h (3 Bft) 96,06 %
02.10.2022 13:00 16,0 C 16,4 C 12,1 C 88 % 1018,5 hPa 0,0 l/m 0,27 h 0,00 h 265 W/m 14,5 km/h (3 Bft) 98,22 %
02.10.2022 14:00 17,3 C 18,3 C 13,0 C 81 % 1018,7 hPa 0,0 l/m 0,87 h 0,00 h 458 W/m 13,5 km/h (3 Bft) 97,22 %
02.10.2022 15:00 17,1 C 16,8 C 12,8 C 79 % 1018,7 hPa 0,0 l/m 0,23 h 0,00 h 199 W/m 11,2 km/h (2 Bft) 97,72 %
02.10.2022 16:00 16,9 C 16,9 C 12,7 C 80 % 1019,2 hPa 0,2 l/m 0,77 h 0,00 h 246 W/m 13,6 km/h (3 Bft) 94,19 %
02.10.2022 17:00 17,1 C 16,4 C 12,2 C 79 % 1019,4 hPa 0,0 l/m 0,97 h 0,00 h 206 W/m 12,0 km/h (2 Bft) 99,00 %
02.10.2022 18:00 16,7 C 15,7 C 11,8 C 81 % 1020,0 hPa 0,0 l/m 0,50 h 0,00 h 64 W/m 7,7 km/h (2 Bft) 96,32 %
02.10.2022 19:00 15,0 C 13,4 C 10,2 C 83 % 1021,2 hPa 0,0 l/m 0,00 h 0,00 h 6 W/m 5,2 km/h (1 Bft) 97,73 %
02.10.2022 20:00 13,6 C 12,1 C 9,0 C 85 % 1022,3 hPa 0,0 l/m 0,00 h 0,00 h 0 W/m 3,5 km/h (1 Bft) 98,86 %
02.10.2022 21:00 12,5 C 10,9 C 7,7 C 87 % 1023,1 hPa 0,0 l/m 0,00 h 0,00 h 0 W/m 2,3 km/h (1 Bft) 95,59 %
02.10.2022 22:00 11,4 C 9,9 C 7,0 C 90 % 1023,9 hPa 0,0 l/m 0,00 h 0,00 h 0 W/m 0,6 km/h (0 Bft) 98,13 %
02.10.2022 23:00 10,5 C 9,1 C 6,4 C 91 % 1024,7 hPa 0,0 l/m 0,00 h 0,00 h 0 W/m 1,0 km/h (0 Bft) 98,22 %
Min-Datum _ 30.09.22 30.09.22 30.09.22 29.09.22 28.09.22 - - - - 26.09.22 26.09.22
_ Min-Zeit 04:54 03:28 03:24 16:22 04:16 - - - - 00:00 00:02
Minimum _ 5,1 C 4,4 C 2,2 C 62 % 995,7 hPa - - - - 0,0 km/h (0 Bft) 9,52 %
Max-Datum _ 01.10.22 29.09.22 29.09.22 29.09.22 02.10.22 02.10.22 29.09.22 27.09.22 01.10.22 26.09.22 26.09.22
_ Max-Zeit 14:08 11:40 11:46 09:08 23:54 06:08 12:08 00:08 14:00 18:26 00:32
Maximum _ 18,0 C 22,8 C 15,6 C 99 % 1025,1 hPa 8,2 l/m 0,07 h 0,07 h 787 W/m 54,7 km/h
S-SW (7 Bft)
100,00 %
Durchschnitt _ 11,3 C 10,8 C 7,3 C 90 % 1005,2 hPa #43,4 l/m #17:44 h #24:29 h 140 W/m 9,9 km/h (2 Bft) 97,34 %
© 2022 W. Hausmann